createdAt,value
2018-06-16T00:02:34.871Z,2.47
2018-06-16T00:07:37.148Z,2.60
2018-06-16T00:12:39.646Z,2.13
2018-06-16T00:18:03.140Z,1.90
2018-06-16T00:41:59.336Z,2.10
2018-06-16T00:47:26.901Z,2.27
2018-06-16T03:49:34.255Z,3.00
2018-06-16T11:07:07.667Z,6.00
2018-06-16T11:12:09.849Z,7.67
2018-06-16T11:17:12.045Z,4.73
2018-06-16T11:22:14.233Z,5.17
2018-06-16T11:27:16.397Z,5.90
2018-06-16T11:32:18.550Z,6.27
2018-06-16T11:37:20.772Z,5.87
2018-06-16T11:42:23.075Z,6.97
2018-06-16T11:47:25.285Z,7.57
2018-06-16T11:52:27.444Z,7.70
2018-06-16T11:57:29.636Z,7.97
2018-06-16T12:02:31.814Z,7.77
2018-06-16T12:07:34.001Z,7.77
2018-06-16T12:12:37.098Z,7.47
2018-06-16T12:17:39.767Z,7.70
2018-06-16T12:22:41.921Z,7.50
2018-06-16T12:27:44.112Z,7.90
2018-06-16T12:32:47.264Z,8.23
2018-06-16T12:37:49.540Z,6.80
2018-06-16T12:42:51.770Z,6.13
2018-06-16T12:47:53.972Z,6.00
2018-06-16T12:52:56.176Z,7.00
2018-06-16T13:03:07.337Z,7.10
2018-06-16T13:08:09.516Z,7.07
2018-06-16T13:13:11.699Z,6.70
2018-06-16T13:18:13.891Z,6.90
2018-06-16T13:23:16.085Z,6.80
2018-06-16T13:28:18.266Z,6.60
2018-06-16T13:33:20.477Z,7.13
2018-06-16T13:38:22.667Z,6.13
2018-06-16T13:43:24.847Z,5.13
2018-06-16T13:48:27.060Z,3.87
2018-06-16T13:53:29.241Z,4.03
2018-06-16T13:58:31.441Z,4.70
2018-06-16T14:03:33.668Z,4.90
2018-06-16T14:08:35.894Z,4.40
2018-06-16T14:13:38.131Z,5.23
2018-06-16T14:18:40.299Z,4.93
2018-06-16T14:23:42.528Z,4.57
2018-06-16T14:28:44.722Z,5.10
2018-06-16T14:33:46.914Z,6.27
2018-06-16T14:38:49.122Z,5.63
2018-06-16T14:43:51.675Z,6.40
2018-06-16T14:48:53.863Z,6.13
2018-06-16T14:53:56.073Z,6.60
2018-06-16T14:59:04.972Z,7.50
2018-06-16T15:04:07.196Z,7.90
2018-06-16T15:09:10.395Z,7.80
2018-06-16T15:14:12.546Z,7.10
2018-06-16T15:19:14.756Z,6.23
2018-06-16T15:24:16.968Z,8.90
2018-06-16T15:29:20.117Z,6.90
2018-06-16T15:34:22.252Z,6.53
2018-06-16T15:39:24.511Z,6.00
2018-06-16T15:44:26.717Z,8.40
2018-06-16T15:49:28.893Z,10.60
2018-06-16T15:54:31.084Z,10.80
2018-06-16T15:59:33.284Z,10.20
2018-06-16T16:04:35.548Z,10.30
2018-06-16T16:09:37.787Z,9.40
2018-06-16T16:14:40.006Z,10.03
2018-06-16T16:19:42.175Z,11.10
2018-06-16T16:24:44.438Z,11.30
2018-06-16T16:29:46.632Z,11.33
2018-06-16T16:34:48.813Z,9.73
2018-06-16T16:39:51.005Z,10.33
2018-06-16T16:44:53.175Z,9.43
2018-06-16T16:49:55.370Z,9.33
2018-06-16T16:54:57.621Z,8.23
2018-06-16T16:59:59.793Z,6.90
2018-06-16T17:05:02.037Z,7.63
2018-06-16T17:10:04.526Z,7.70
2018-06-16T17:15:06.736Z,8.50
2018-06-16T17:20:08.927Z,8.10
2018-06-16T17:25:11.158Z,7.33
2018-06-16T17:30:13.367Z,8.87
2018-06-16T17:35:15.597Z,8.70
2018-06-16T17:40:17.793Z,9.10
2018-06-16T17:45:20.061Z,12.60
2018-06-16T17:50:22.258Z,14.50
2018-06-16T17:55:24.466Z,20.17
2018-06-16T18:00:26.678Z,23.07
2018-06-16T18:05:28.923Z,20.23
2018-06-16T18:10:31.137Z,21.03
2018-06-16T18:15:33.359Z,21.90
2018-06-16T18:20:35.604Z,17.70
2018-06-16T18:25:37.832Z,21.60
2018-06-16T18:30:40.044Z,20.87
2018-06-16T18:35:42.247Z,24.07
2018-06-16T18:40:44.485Z,18.47
2018-06-16T18:45:46.697Z,22.20
2018-06-16T18:50:48.969Z,22.33
2018-06-16T18:55:51.185Z,23.10
2018-06-16T19:00:53.417Z,22.53
2018-06-16T19:05:55.635Z,22.20
2018-06-16T19:10:57.897Z,25.80
2018-06-16T19:16:00.026Z,20.40
2018-06-16T19:21:02.169Z,21.90
2018-06-16T19:26:04.564Z,21.83
2018-06-16T19:31:06.754Z,22.57
2018-06-16T19:36:08.988Z,22.50
2018-06-16T19:41:11.267Z,26.97
2018-06-16T19:46:13.495Z,24.73
2018-06-16T19:51:15.690Z,14.20
2018-06-16T19:56:17.887Z,18.70
2018-06-16T20:01:20.111Z,19.63
2018-06-16T20:06:22.421Z,20.93
2018-06-16T20:11:24.632Z,21.07
2018-06-16T20:16:26.888Z,19.73
2018-06-16T20:21:29.093Z,21.77
2018-06-16T20:26:33.934Z,23.00
2018-06-16T20:31:36.110Z,22.80
2018-06-16T20:36:38.790Z,22.60
2018-06-16T20:41:40.971Z,22.30
2018-06-16T20:46:43.212Z,22.80
2018-06-16T20:51:45.381Z,23.40
2018-06-16T20:56:47.871Z,26.80
2018-06-16T21:01:50.108Z,27.17
2018-06-16T21:06:52.325Z,26.63
2018-06-16T21:11:54.528Z,27.17
2018-06-16T21:16:56.728Z,27.80
2018-06-16T21:21:58.932Z,26.23
2018-06-16T21:32:10.041Z,25.17
2018-06-16T21:37:12.280Z,25.70
2018-06-16T21:42:14.524Z,25.30
2018-06-16T21:47:16.748Z,30.90
2018-06-16T21:52:18.917Z,29.30
2018-06-16T21:57:21.089Z,28.93
2018-06-16T22:02:23.349Z,30.10
2018-06-16T22:07:25.545Z,28.30
2018-06-16T22:12:27.762Z,33.90
2018-06-16T22:17:30.002Z,32.40
2018-06-16T22:22:32.184Z,30.60
2018-06-16T22:27:34.389Z,29.30
2018-06-16T22:32:36.546Z,31.63
2018-06-16T22:37:38.737Z,30.97
2018-06-16T22:42:41.117Z,27.13
2018-06-16T22:47:43.478Z,30.00
2018-06-16T22:52:45.652Z,28.73
2018-06-16T22:57:47.847Z,32.10
2018-06-16T23:02:50.093Z,29.73
2018-06-16T23:07:52.995Z,33.60
2018-06-16T23:12:55.236Z,33.20
2018-06-16T23:17:57.441Z,33.60
2018-06-16T23:22:59.635Z,30.97
2018-06-16T23:28:01.806Z,31.87
2018-06-16T23:33:04.033Z,30.17
2018-06-16T23:38:06.281Z,28.10
2018-06-16T23:43:08.824Z,27.10
2018-06-16T23:48:11.413Z,26.60
2018-06-16T23:53:13.799Z,25.67
2018-06-16T23:58:16.189Z,24.40
